CheckWX is a tool to help pilots better visualize weather data.  It is not intended as a substitute for an official pre-flight weather briefing.

01:36:42 UTC

KBBG METAR
Branson Airport
Branson, Missouri, USA
Current

47 mins ago

KBBG 200050Z 21006KT 10SM FEW050 SCT250 30/23 A2996
Observed
Jul-20 @ 00:50 UTC
Wind
  • 210° at 6 KTS
Visibility
10 SM
Flight Rules
VFR
Cloud Levels
  • Few at 5,000' AGL
  • Scattered at 25,000' AGL
Temperature
30°C / 86°F
Dewpoint
23°C / 73°F
Heat Index
34°C / 93°F
Humidity
66%
Altimeter
29.96" Hg
Pressure
1014.52 hPa
Previous

2 hours ago

KBBG 192350Z 20005KT 10SM FEW050 SCT250 32/22 A2996
Observed
Jul-19 @ 23:50 UTC
Wind
  • 200° at 5 KTS
Visibility
10 SM
Flight Rules
VFR
Cloud Levels
  • Few at 5,000' AGL
  • Scattered at 25,000' AGL
Temperature
32°C / 90°F
Dewpoint
22°C / 72°F
Heat Index
36°C / 97°F
Humidity
55%
Altimeter
29.96" Hg
Pressure
1014.52 hPa
Previous

3 hours ago

KBBG 192250Z 19009KT 10SM FEW050 SCT250 33/23 A2997
Observed
Jul-19 @ 22:50 UTC
Wind
  • 190° at 9 KTS
Visibility
10 SM
Flight Rules
VFR
Cloud Levels
  • Few at 5,000' AGL
  • Scattered at 25,000' AGL
Temperature
33°C / 91°F
Dewpoint
23°C / 73°F
Heat Index
38°C / 100°F
Humidity
56%
Altimeter
29.97" Hg
Pressure
1014.92 hPa